createdAt,value
2022-11-21T00:01:36.714Z,85.67
2022-11-21T00:04:03.716Z,88.30
2022-11-21T00:06:30.626Z,68.93
2022-11-21T00:08:57.510Z,76.57
2022-11-21T00:11:24.472Z,76.23
2022-11-21T00:13:51.339Z,86.23
2022-11-21T00:16:18.261Z,88.37
2022-11-21T00:18:45.364Z,86.80
2022-11-21T00:21:17.951Z,87.10
2022-11-21T00:23:45.928Z,86.27
2022-11-21T00:26:15.052Z,84.43
2022-11-21T00:28:42.149Z,84.93
2022-11-21T00:31:09.544Z,92.37
2022-11-21T00:33:39.324Z,79.23
2022-11-21T00:36:08.541Z,65.53
2022-11-21T00:38:35.843Z,81.43
2022-11-21T00:41:02.731Z,76.83
2022-11-21T00:43:29.682Z,80.33
2022-11-21T00:45:56.608Z,84.43
2022-11-21T00:48:23.568Z,84.53
2022-11-21T00:50:50.580Z,82.97
2022-11-21T00:53:17.534Z,83.93
2022-11-21T00:55:44.462Z,81.87
2022-11-21T00:58:11.355Z,79.80
2022-11-21T01:00:38.320Z,75.80
2022-11-21T01:03:05.267Z,80.33
2022-11-21T01:05:33.316Z,68.87
2022-11-21T01:08:00.234Z,87.03
2022-11-21T01:10:27.162Z,76.63
2022-11-21T01:12:54.032Z,92.17
2022-11-21T01:15:20.965Z,82.10
2022-11-21T01:17:48.048Z,90.67
2022-11-21T01:20:15.010Z,70.17
2022-11-21T01:22:42.012Z,80.27
2022-11-21T01:25:09.101Z,86.10
2022-11-21T01:27:36.297Z,74.47
2022-11-21T01:30:03.726Z,76.40
2022-11-21T01:32:30.609Z,80.87
2022-11-21T01:34:57.515Z,84.33
2022-11-21T01:37:25.121Z,87.93
2022-11-21T01:39:52.097Z,76.77
2022-11-21T01:42:18.976Z,72.80
2022-11-21T01:44:50.335Z,83.83
2022-11-21T01:47:17.774Z,78.77
2022-11-21T01:49:45.935Z,81.43
2022-11-21T01:52:31.430Z,85.80
2022-11-21T01:55:08.116Z,70.47
2022-11-21T01:57:44.690Z,76.07
2022-11-21T02:00:22.015Z,77.47
2022-11-21T02:02:56.612Z,78.30
2022-11-21T02:05:32.758Z,75.97
2022-11-21T02:08:11.086Z,73.47
2022-11-21T02:10:41.308Z,82.37
2022-11-21T02:13:08.522Z,83.57
2022-11-21T02:15:35.405Z,80.90
2022-11-21T02:18:02.278Z,84.93
2022-11-21T02:20:29.732Z,80.53
2022-11-21T02:23:09.963Z,70.90
2022-11-21T02:25:41.453Z,83.00
2022-11-21T02:28:23.525Z,80.60
2022-11-21T02:30:50.836Z,78.90
2022-11-21T02:33:17.787Z,78.73
2022-11-21T02:35:44.825Z,84.30
2022-11-21T02:38:23.143Z,92.53
2022-11-21T02:41:08.357Z,78.43
2022-11-21T02:43:51.324Z,86.47
2022-11-21T02:46:18.254Z,80.20
2022-11-21T02:48:45.386Z,79.37
2022-11-21T02:51:12.296Z,73.33
2022-11-21T02:53:39.221Z,81.03
2022-11-21T02:56:06.166Z,101.73
2022-11-21T02:58:33.377Z,90.40
2022-11-21T03:01:00.299Z,74.50
2022-11-21T03:03:27.251Z,82.43
2022-11-21T03:05:54.693Z,78.60
2022-11-21T03:08:21.603Z,83.23
2022-11-21T03:10:48.525Z,80.23
2022-11-21T03:13:15.436Z,72.53
2022-11-21T03:15:42.332Z,76.10
2022-11-21T03:18:09.221Z,72.73
2022-11-21T03:20:36.198Z,73.73
2022-11-21T03:23:03.303Z,74.40
2022-11-21T03:25:30.281Z,78.13
2022-11-21T03:27:57.201Z,70.83
2022-11-21T03:30:26.387Z,74.60
2022-11-21T03:32:56.754Z,74.03
2022-11-21T03:35:24.166Z,70.07
2022-11-21T03:37:51.030Z,77.10
2022-11-21T03:40:18.038Z,72.63
2022-11-21T03:42:45.157Z,72.47
2022-11-21T03:45:12.046Z,70.63
2022-11-21T03:47:38.931Z,80.37
2022-11-21T03:50:06.298Z,77.30
2022-11-21T03:52:33.571Z,87.33
2022-11-21T03:55:00.497Z,70.10
2022-11-21T03:57:27.419Z,83.37
2022-11-21T03:59:54.309Z,69.10
2022-11-21T04:02:21.205Z,70.63
2022-11-21T04:04:48.822Z,71.00
2022-11-21T04:07:16.413Z,69.77
2022-11-21T04:09:43.410Z,74.63
2022-11-21T04:12:10.408Z,72.43
2022-11-21T04:14:37.341Z,68.83
2022-11-21T04:17:04.527Z,70.33
2022-11-21T04:19:31.400Z,66.43
2022-11-21T04:21:58.274Z,63.60
2022-11-21T04:24:25.377Z,77.13
2022-11-21T04:26:55.413Z,72.90
2022-11-21T04:29:22.288Z,70.77
2022-11-21T04:31:49.170Z,73.80
2022-11-21T04:34:16.138Z,74.47
2022-11-21T04:36:43.135Z,74.17
2022-11-21T04:39:10.168Z,84.07
2022-11-21T04:41:37.072Z,87.77
2022-11-21T04:44:04.100Z,71.67
2022-11-21T04:46:30.958Z,92.60
2022-11-21T04:48:57.845Z,79.90
2022-11-21T04:51:24.720Z,81.43
2022-11-21T04:53:51.642Z,84.90
2022-11-21T04:56:18.557Z,83.87
2022-11-21T04:58:45.622Z,91.50
2022-11-21T05:01:12.743Z,71.67
2022-11-21T05:03:39.934Z,77.63
2022-11-21T05:06:06.870Z,81.40
2022-11-21T05:08:33.772Z,78.27
2022-11-21T05:11:19.459Z,82.20
2022-11-21T05:13:46.348Z,78.50
2022-11-21T05:16:13.265Z,86.10
2022-11-21T05:18:40.144Z,80.40
2022-11-21T05:21:07.028Z,95.63
2022-11-21T05:23:33.965Z,78.70
2022-11-21T05:26:00.836Z,81.33
2022-11-21T05:28:27.926Z,91.77
2022-11-21T05:30:54.809Z,77.80
2022-11-21T05:33:21.887Z,88.30
2022-11-21T05:35:48.807Z,81.93
2022-11-21T05:38:15.671Z,87.27
2022-11-21T05:40:42.549Z,75.10
2022-11-21T05:43:30.816Z,87.10
2022-11-21T05:45:58.107Z,77.67
2022-11-21T05:48:25.166Z,77.20
2022-11-21T05:50:52.082Z,66.93
2022-11-21T05:53:19.353Z,82.63
2022-11-21T05:55:46.605Z,86.63
2022-11-21T05:58:14.635Z,87.83
2022-11-21T06:00:41.923Z,75.83
2022-11-21T06:03:30.777Z,85.80
2022-11-21T06:06:07.192Z,71.80
2022-11-21T06:08:39.992Z,66.70
2022-11-21T06:11:08.713Z,83.50
2022-11-21T06:13:36.897Z,79.50
2022-11-21T06:16:14.430Z,70.67
2022-11-21T06:18:47.805Z,82.20
2022-11-21T06:21:21.246Z,77.87
2022-11-21T06:23:51.661Z,78.07
2022-11-21T06:26:22.040Z,79.00
2022-11-21T06:28:49.393Z,71.50
2022-11-21T06:31:20.527Z,79.87
2022-11-21T06:33:47.998Z,67.10
2022-11-21T06:36:17.285Z,72.63
2022-11-21T06:38:45.736Z,73.53
2022-11-21T06:41:22.526Z,74.67
2022-11-21T06:43:49.444Z,63.87
2022-11-21T06:46:17.448Z,73.30
2022-11-21T06:48:45.153Z,65.70
2022-11-21T06:51:21.545Z,68.50
2022-11-21T06:53:57.025Z,75.43
2022-11-21T06:56:26.312Z,82.23
2022-11-21T06:58:53.346Z,93.63
2022-11-21T07:01:20.450Z,79.73
2022-11-21T07:03:47.377Z,82.07
2022-11-21T07:06:14.372Z,76.37
2022-11-21T07:08:41.404Z,84.03
2022-11-21T07:11:24.587Z,81.03
2022-11-21T07:13:52.189Z,75.77
2022-11-21T07:16:19.138Z,78.53
2022-11-21T07:18:46.019Z,77.97
2022-11-21T07:21:12.999Z,71.83
2022-11-21T07:23:39.919Z,78.67
2022-11-21T07:26:08.504Z,70.03
2022-11-21T07:28:35.481Z,68.70
2022-11-21T07:31:07.017Z,80.83
2022-11-21T07:33:39.904Z,64.97
2022-11-21T07:36:07.331Z,76.40
2022-11-21T07:38:34.329Z,71.23
2022-11-21T07:41:01.232Z,86.23
2022-11-21T07:43:28.155Z,64.10
2022-11-21T07:45:55.972Z,67.60
2022-11-21T07:48:22.856Z,79.60
2022-11-21T07:50:49.776Z,81.23
2022-11-21T07:53:16.804Z,85.60
2022-11-21T07:55:43.686Z,74.13
2022-11-21T07:58:13.413Z,87.87
2022-11-21T08:00:43.096Z,78.03
2022-11-21T08:03:12.360Z,74.80
2022-11-21T08:05:44.591Z,77.83
2022-11-21T08:08:13.427Z,72.20
2022-11-21T08:10:43.617Z,70.20
2022-11-21T08:13:11.566Z,71.73
2022-11-21T08:15:39.071Z,66.87
2022-11-21T08:18:15.293Z,77.87
2022-11-21T08:20:42.936Z,62.77
2022-11-21T08:23:10.914Z,62.03
2022-11-21T08:25:39.056Z,63.67
2022-11-21T08:28:07.825Z,68.87
2022-11-21T08:30:35.731Z,70.67
2022-11-21T08:33:03.178Z,73.63
2022-11-21T08:35:30.522Z,67.30
2022-11-21T08:38:01.653Z,72.40
2022-11-21T08:40:31.119Z,68.10
2022-11-21T08:43:07.295Z,66.83
2022-11-21T08:45:36.030Z,67.70
2022-11-21T08:48:03.901Z,66.27
2022-11-21T08:50:32.083Z,70.37
2022-11-21T08:53:03.023Z,66.80
2022-11-21T08:55:30.971Z,76.17
2022-11-21T08:57:58.391Z,67.87
2022-11-21T09:00:25.701Z,65.53
2022-11-21T09:02:52.587Z,64.83
2022-11-21T09:05:19.510Z,67.37
2022-11-21T09:07:47.480Z,62.70
2022-11-21T09:10:15.152Z,63.03
2022-11-21T09:12:42.183Z,66.90
2022-11-21T09:15:30.140Z,64.43
2022-11-21T09:18:04.443Z,70.43
2022-11-21T09:20:34.174Z,64.43
2022-11-21T09:23:07.232Z,64.80
2022-11-21T09:25:34.389Z,78.77
2022-11-21T09:28:03.070Z,76.93
2022-11-21T09:30:30.039Z,79.07
2022-11-21T09:33:02.232Z,63.67
2022-11-21T09:35:29.966Z,62.47
2022-11-21T09:37:58.101Z,74.37
2022-11-21T09:40:26.204Z,60.43
2022-11-21T09:43:28.322Z,61.80
2022-11-21T09:46:11.286Z,58.53
2022-11-21T09:49:01.298Z,55.80
2022-11-21T09:51:31.706Z,54.20
2022-11-21T09:54:09.857Z,63.47
2022-11-21T09:56:41.707Z,67.00
2022-11-21T09:59:27.310Z,63.03
2022-11-21T10:01:54.197Z,59.97
2022-11-21T10:04:21.102Z,58.00
2022-11-21T10:07:27.547Z,56.07
2022-11-21T10:10:21.200Z,63.67
2022-11-21T10:12:57.956Z,62.70
2022-11-21T10:15:40.428Z,67.97
2022-11-21T10:18:44.898Z,74.27
2022-11-21T10:22:00.655Z,69.37
2022-11-21T10:24:45.235Z,56.67
2022-11-21T10:27:34.820Z,67.40
2022-11-21T10:30:14.422Z,67.77
2022-11-21T10:32:50.343Z,57.70
2022-11-21T10:35:37.146Z,56.90
2022-11-21T10:38:24.996Z,54.03
2022-11-21T10:41:04.131Z,63.13
2022-11-21T10:44:10.178Z,63.37
2022-11-21T10:46:37.055Z,52.80
2022-11-21T10:49:04.826Z,53.73
2022-11-21T10:52:07.202Z,51.37
2022-11-21T10:55:03.089Z,59.57
2022-11-21T10:57:39.965Z,58.87
2022-11-21T11:00:26.143Z,61.63
2022-11-21T11:02:56.029Z,55.17
2022-11-21T11:05:25.040Z,58.03
2022-11-21T11:08:08.184Z,54.53
2022-11-21T11:10:44.247Z,59.23
2022-11-21T11:13:46.989Z,68.27
2022-11-21T11:16:22.381Z,66.30
2022-11-21T11:19:08.682Z,68.37
2022-11-21T11:21:44.167Z,59.47
2022-11-21T11:24:10.946Z,73.20
2022-11-21T11:26:48.602Z,61.23
2022-11-21T11:29:35.637Z,61.73
2022-11-21T11:32:20.652Z,81.73
2022-11-21T11:35:00.316Z,62.00
2022-11-21T11:37:42.159Z,60.30
2022-11-21T11:40:26.218Z,61.97
2022-11-21T11:43:47.174Z,59.90
2022-11-21T11:46:53.822Z,59.17
2022-11-21T11:50:13.006Z,64.57
2022-11-21T11:52:58.862Z,63.13
2022-11-21T11:55:53.085Z,64.03
2022-11-21T11:58:27.765Z,68.03
2022-11-21T12:01:51.234Z,60.07
2022-11-21T12:04:27.495Z,68.97
2022-11-21T12:10:26.540Z,56.23
2022-11-21T12:13:11.326Z,57.90
2022-11-21T12:15:50.644Z,60.40
2022-11-21T12:18:19.986Z,61.33
2022-11-21T12:21:02.686Z,61.70
2022-11-21T12:23:59.159Z,70.00
2022-11-21T12:27:11.582Z,79.03
2022-11-21T12:30:21.771Z,69.90
2022-11-21T12:33:07.954Z,58.80
2022-11-21T12:36:09.021Z,73.13
2022-11-21T12:39:24.164Z,77.50
2022-11-21T12:42:26.104Z,70.33
2022-11-21T12:45:18.682Z,59.17
2022-11-21T12:48:29.078Z,78.40
2022-11-21T12:51:57.999Z,66.90
2022-11-21T12:54:49.560Z,70.77
2022-11-21T12:57:19.388Z,69.00
2022-11-21T13:00:20.304Z,58.00
2022-11-21T13:03:04.025Z,65.17
2022-11-21T13:05:40.705Z,57.40
2022-11-21T13:08:24.777Z,57.87
2022-11-21T13:11:43.672Z,59.67
2022-11-21T13:14:27.515Z,75.03
2022-11-21T13:17:28.616Z,70.97
2022-11-21T13:20:06.972Z,74.37
2022-11-21T13:22:36.869Z,56.87
2022-11-21T13:25:31.905Z,54.33
2022-11-21T13:28:13.935Z,58.80
2022-11-21T13:30:54.022Z,68.73
2022-11-21T13:33:36.165Z,73.50
2022-11-21T13:36:07.824Z,87.47
2022-11-21T13:38:52.966Z,69.33
2022-11-21T13:41:53.706Z,71.87
2022-11-21T13:44:32.590Z,68.60
2022-11-21T13:47:34.551Z,70.70
2022-11-21T13:50:32.235Z,71.13
2022-11-21T13:53:27.823Z,73.67
2022-11-21T13:56:55.261Z,76.60
2022-11-21T13:59:54.838Z,63.67
2022-11-21T14:02:51.769Z,80.37
2022-11-21T14:06:19.888Z,68.87
2022-11-21T14:09:05.743Z,76.80
2022-11-21T14:11:48.199Z,79.57
2022-11-21T14:14:54.198Z,78.27
2022-11-21T14:17:30.372Z,70.47
2022-11-21T14:19:59.972Z,90.73
2022-11-21T14:22:45.169Z,78.83
2022-11-21T14:25:21.061Z,89.10
2022-11-21T14:27:51.707Z,85.60
2022-11-21T14:30:42.334Z,73.63
2022-11-21T14:33:26.613Z,78.70
2022-11-21T14:36:02.224Z,93.07
2022-11-21T14:38:33.448Z,71.33
2022-11-21T14:41:27.495Z,71.60
2022-11-21T14:44:01.370Z,73.87
2022-11-21T14:46:35.255Z,76.17
2022-11-21T14:49:19.719Z,92.47
2022-11-21T14:52:01.495Z,74.93
2022-11-21T14:54:38.870Z,78.57
2022-11-21T14:57:36.378Z,72.07
2022-11-21T15:00:06.876Z,81.27
2022-11-21T15:02:34.370Z,78.57
2022-11-21T15:05:07.984Z,75.93
2022-11-21T15:07:44.319Z,82.50
2022-11-21T15:10:33.951Z,85.00
2022-11-21T15:13:02.685Z,78.47
2022-11-21T15:15:36.809Z,72.60
2022-11-21T15:18:27.084Z,77.60
2022-11-21T15:21:04.246Z,96.60
2022-11-21T15:23:38.421Z,87.40
2022-11-21T15:26:05.940Z,85.80
2022-11-21T15:28:33.277Z,90.93
2022-11-21T15:31:17.091Z,85.90
2022-11-21T15:37:11.868Z,99.30
2022-11-21T15:42:37.076Z,93.17
2022-11-21T15:45:20.058Z,83.77
2022-11-21T15:47:48.255Z,94.23
2022-11-21T15:50:16.437Z,97.10
2022-11-21T15:52:51.835Z,97.47
2022-11-21T15:55:24.018Z,83.87
2022-11-21T15:57:15.670Z,82.73
2022-11-21T15:57:50.954Z,90.10
2022-11-21T16:00:18.080Z,94.93
2022-11-21T16:02:45.007Z,96.30
2022-11-21T16:05:13.999Z,89.43
2022-11-21T16:07:41.881Z,97.60
2022-11-21T16:10:17.251Z,94.80
2022-11-21T16:12:48.620Z,81.63
2022-11-21T16:15:15.567Z,83.30
2022-11-21T16:17:45.598Z,88.23
2022-11-21T16:20:13.246Z,100.73
2022-11-21T16:22:44.308Z,86.30
2022-11-21T16:25:14.259Z,90.03
2022-11-21T16:27:41.161Z,84.63
2022-11-21T16:30:08.878Z,90.87
2022-11-21T16:32:36.151Z,95.87
2022-11-21T16:35:03.471Z,92.80
2022-11-21T16:37:33.919Z,98.77
2022-11-21T16:40:00.872Z,86.20
2022-11-21T16:42:27.779Z,86.73
2022-11-21T16:44:54.829Z,91.83
2022-11-21T16:47:21.741Z,88.47
2022-11-21T16:49:49.205Z,90.40
2022-11-21T16:52:18.026Z,100.17
2022-11-21T16:54:45.129Z,101.13
2022-11-21T16:57:12.085Z,87.53
2022-11-21T16:59:39.018Z,97.63
2022-11-21T17:02:05.949Z,112.60
2022-11-21T17:04:32.993Z,104.27
2022-11-21T17:07:01.125Z,97.37
2022-11-21T17:09:28.087Z,99.73
2022-11-21T17:11:57.887Z,91.23
2022-11-21T17:14:24.975Z,96.23
2022-11-21T17:16:52.049Z,93.10
2022-11-21T17:19:19.001Z,99.20
2022-11-21T17:21:45.880Z,96.50
2022-11-21T17:24:13.570Z,99.73
2022-11-21T17:26:40.517Z,96.13
2022-11-21T17:29:07.740Z,97.30
2022-11-21T17:31:34.877Z,92.90
2022-11-21T17:34:02.157Z,96.60
2022-11-21T17:36:30.646Z,104.27
2022-11-21T17:38:57.760Z,91.67
2022-11-21T17:41:25.973Z,87.50
2022-11-21T17:43:57.950Z,91.80
2022-11-21T17:46:25.677Z,85.43
2022-11-21T17:48:57.471Z,88.17
2022-11-21T17:51:34.484Z,86.47
2022-11-21T17:54:02.125Z,83.77
2022-11-21T17:56:32.965Z,100.83
2022-11-21T17:59:00.196Z,89.67
2022-11-21T18:01:28.688Z,95.40
2022-11-21T18:04:02.262Z,90.60
2022-11-21T18:06:36.057Z,86.03
2022-11-21T18:09:05.298Z,92.70
2022-11-21T18:11:39.629Z,88.43
2022-11-21T18:14:09.328Z,83.60
2022-11-21T18:16:36.513Z,89.93
2022-11-21T18:19:03.547Z,80.50
2022-11-21T18:21:33.154Z,83.30
2022-11-21T18:24:00.344Z,81.23
2022-11-21T18:26:33.411Z,85.23
2022-11-21T18:29:28.554Z,90.27
2022-11-21T18:31:49.306Z,90.17
2022-11-21T18:34:16.273Z,83.70
2022-11-21T18:36:43.258Z,83.10
2022-11-21T18:39:14.783Z,76.63
2022-11-21T18:41:43.280Z,79.23
2022-11-21T18:44:11.983Z,84.87
2022-11-21T18:46:40.549Z,76.70
2022-11-21T18:49:08.382Z,83.67
2022-11-21T18:51:36.501Z,78.57
2022-11-21T18:54:09.696Z,71.63
2022-11-21T18:56:38.794Z,89.33
2022-11-21T18:59:06.653Z,75.73
2022-11-21T19:01:35.810Z,86.40
2022-11-21T19:04:03.465Z,82.27
2022-11-21T19:06:30.399Z,80.80
2022-11-21T19:08:58.567Z,77.10
2022-11-21T19:11:28.717Z,67.37
2022-11-21T19:13:57.279Z,70.97
2022-11-21T19:16:27.148Z,73.83
2022-11-21T19:19:26.402Z,71.50
2022-11-21T19:21:42.821Z,77.07
2022-11-21T19:24:14.593Z,70.07
2022-11-21T19:26:42.456Z,67.97
2022-11-21T19:29:10.404Z,82.40
2022-11-21T19:31:44.118Z,77.50
2022-11-21T19:34:14.194Z,72.00
2022-11-21T19:36:41.853Z,71.10
2022-11-21T19:39:09.317Z,67.10
2022-11-21T19:41:36.630Z,65.57
2022-11-21T19:44:03.888Z,78.57
2022-11-21T19:46:37.677Z,75.17
2022-11-21T19:49:06.183Z,64.40
2022-11-21T19:51:36.689Z,78.10
2022-11-21T19:54:06.258Z,68.73
2022-11-21T19:56:33.686Z,70.13
2022-11-21T19:59:00.673Z,69.40
2022-11-21T20:01:30.642Z,71.37
2022-11-21T20:04:01.097Z,62.33
2022-11-21T20:06:31.381Z,70.63
2022-11-21T20:09:02.495Z,75.07
2022-11-21T20:11:32.945Z,64.47
2022-11-21T20:14:00.320Z,64.30
2022-11-21T20:16:34.245Z,60.30
2022-11-21T20:19:04.475Z,62.30
2022-11-21T20:21:31.471Z,67.00
2022-11-21T20:23:58.993Z,60.63
2022-11-21T20:26:26.772Z,72.43
2022-11-21T20:28:54.386Z,70.60
2022-11-21T20:31:27.068Z,70.73
2022-11-21T20:34:00.902Z,79.80
2022-11-21T20:36:34.500Z,61.90
2022-11-21T20:39:20.243Z,61.47
2022-11-21T20:41:48.173Z,68.43
2022-11-21T20:47:06.999Z,67.07
2022-11-21T20:49:34.273Z,59.63
2022-11-21T20:54:48.128Z,63.40
2022-11-21T20:57:15.721Z,66.77
2022-11-21T20:59:43.264Z,63.00
2022-11-21T21:02:14.368Z,68.97
2022-11-21T21:04:42.261Z,62.80
2022-11-21T21:07:09.767Z,64.90
2022-11-21T21:09:36.798Z,63.77
2022-11-21T21:12:05.116Z,74.17
2022-11-21T21:14:32.085Z,62.43
2022-11-21T21:16:58.985Z,60.57
2022-11-21T21:19:25.891Z,67.23
2022-11-21T21:21:52.765Z,74.03
2022-11-21T21:24:19.654Z,67.33
2022-11-21T21:26:48.665Z,65.50
2022-11-21T21:29:19.239Z,70.53
2022-11-21T21:31:50.917Z,70.07
2022-11-21T21:34:22.818Z,65.97
2022-11-21T21:36:51.283Z,74.20
2022-11-21T21:39:18.380Z,68.43
2022-11-21T21:41:47.057Z,64.73
2022-11-21T21:44:15.090Z,68.87
2022-11-21T21:46:42.100Z,66.37
2022-11-21T21:49:09.154Z,68.43
2022-11-21T21:51:40.036Z,67.30
2022-11-21T21:54:07.474Z,74.93
2022-11-21T21:56:34.389Z,63.83
2022-11-21T21:59:01.336Z,64.50
2022-11-21T22:01:31.439Z,67.10
2022-11-21T22:04:01.591Z,59.83
2022-11-21T22:06:29.456Z,66.77
2022-11-21T22:08:56.784Z,61.20
2022-11-21T22:11:30.186Z,68.83
2022-11-21T22:14:06.994Z,62.63
2022-11-21T22:16:33.998Z,64.33
2022-11-21T22:19:00.923Z,65.43
2022-11-21T22:21:35.210Z,66.13
2022-11-21T22:26:52.449Z,61.67
2022-11-21T22:29:19.326Z,57.97
2022-11-21T22:31:46.264Z,58.37
2022-11-21T22:34:15.855Z,51.90
2022-11-21T22:36:43.374Z,64.50
2022-11-21T22:39:10.306Z,56.17
2022-11-21T22:41:37.234Z,59.40
2022-11-21T22:44:04.590Z,60.90
2022-11-21T22:46:31.840Z,60.23
2022-11-21T22:48:58.893Z,56.20
2022-11-21T22:51:29.572Z,54.67
2022-11-21T22:53:57.474Z,57.10
2022-11-21T22:56:25.477Z,54.40
2022-11-21T22:58:53.049Z,62.50
2022-11-21T23:01:23.456Z,59.80
2022-11-21T23:03:51.602Z,52.57
2022-11-21T23:06:24.852Z,60.67
2022-11-21T23:08:53.779Z,58.57
2022-11-21T23:11:24.383Z,58.77
2022-11-21T23:13:52.390Z,54.50
2022-11-21T23:16:20.257Z,54.10
2022-11-21T23:18:48.137Z,61.00
2022-11-21T23:21:15.431Z,57.07
2022-11-21T23:23:44.038Z,57.97
2022-11-21T23:26:11.559Z,51.20
2022-11-21T23:28:38.698Z,59.93
2022-11-21T23:31:05.708Z,54.37
2022-11-21T23:33:32.589Z,58.23
2022-11-21T23:35:59.513Z,56.77
2022-11-21T23:38:26.691Z,62.60
2022-11-21T23:40:53.625Z,57.17
2022-11-21T23:43:20.513Z,58.03
2022-11-21T23:45:52.368Z,56.03
2022-11-21T23:48:20.050Z,45.77
2022-11-21T23:50:47.912Z,54.73
2022-11-21T23:53:14.820Z,50.17
2022-11-21T23:55:43.741Z,53.63
2022-11-21T23:58:11.945Z,48.43
